Nearby METAR Reports

 

KSJC - San Jose, California, USA
Distance from station: NE 9mi, 14km
Updated: Sat, 28-Mar-2020 9:53am PDT
Light rain, Overcast
Light rain, Overcast
 Wind from SSE
Wind: SSE 7 mph , 11 km/h
Temperature: 50°F , 10°C
Wind Chill: 47°F , 8°C
Dew Point: 46°F , 8°C
Humidity: 88%
Barometer: 30.24 inHg , 1024 hPa
Summary: Light rain
Clouds: Overcast
Visibility: 8 miles , 13 km
Cloud details: Few Clouds 400 ft
Mostly cloudy 6000 ft
Overcast 13000 ft
2020/03/28 16:53 KSJC 281653Z 15006KT 8SM -RA FEW004 BKN060 OVC130 10/08 A3024 RMK AO2 SLP240 P0000 T01000078
KNUQ - Moffett Nas/Mtn, California, USA
Distance from station: N 9mi, 14km
Updated: Thu, 21-Nov-2019 8:56am PST
NOT Current

 
Barometer: 29.86 inHg , 1011.2 hPa
2019/11/21 16:56 KNUQ 211656Z AUTO A2986 RMK AO2 SLP116 PWINO $
 
KPAO - Palo Alto, California, USA
Distance from station: NNW 14mi, 23km
Updated: Sat, 28-Mar-2020 9:47am PDT
Overcast
Overcast
 Wind from SE
Wind: SE 6 mph , 9 km/h
Temperature: 52°F , 11°C
Dew Point: 46°F , 8°C
Humidity: 82%
Barometer: 30.24 inHg , 1024 hPa
Clouds: Overcast
Visibility: 7 miles , 11 km
Cloud details: Overcast 5000 ft
2020/03/28 16:47 KPAO 281647Z 14005KT 7SM OVC050 11/08 A3024
KRHV - San Jose/Reid, California, USA
Distance from station: ENE 12mi, 19km
Updated: Sat, 28-Mar-2020 9:47am PDT
Overcast
Overcast
 Wind from calm
Wind: Calm
Temperature: 50°F , 10°C
Dew Point: 46°F , 8°C
Humidity: 88%
Barometer: 30.25 inHg , 1024.4 hPa
Clouds: Overcast
Visibility: 10 miles , 16 km
Cloud details: Overcast 6000 ft
2020/03/28 16:47 KRHV 281647Z 00000KT 10SM OVC060 10/08 A3025
 
KOAK - Oakland, California, USA
Distance from station: NNW 31mi, 50km
Updated: Sat, 28-Mar-2020 9:53am PDT
Overcast
Overcast
 Wind from SSE
Wind: SSE 10 mph , 17 km/h
Temperature: 54°F , 12°C
Dew Point: 48°F , 9°C
Humidity: 82%
Barometer: 30.24 inHg , 1024 hPa
Clouds: Overcast
Visibility: 10 miles , 16 km
Cloud details: Partly cloudy 1700 ft
Mostly cloudy 3600 ft
Overcast 7000 ft
2020/03/28 16:53 KOAK 281653Z 15009KT 10SM SCT017 BKN036 OVC070 12/09 A3024 RMK AO2 RAE24 SLP238 P0000 T01170089 $
KSQL - San Carlos Airpo, California, USA
Distance from station: NW 21mi, 34km
Updated: Sat, 28-Mar-2020 9:48am PDT
Mostly cloudy
Mostly cloudy
 Wind from calm
Wind: Calm
Temperature: 52°F , 11°C
Dew Point: 48°F , 9°C
Humidity: 88%
Barometer: 30.24 inHg , 1024 hPa
Clouds: Mostly cloudy
Visibility: 10 miles , 16 km
Cloud details: Mostly cloudy 4600 ft
2020/03/28 16:48 KSQL 281648Z 00000KT 10SM BKN046 11/09 A3024
 
KSFO - San Francisco, California, USA
Distance from station: NW 30mi, 49km
Updated: Sat, 28-Mar-2020 9:56am PDT
Overcast
Overcast
 Wind from SE
Wind: SE 5 mph , 7 km/h
Temperature: 54°F , 12°C
Dew Point: 48°F , 9°C
Humidity: 82%
Barometer: 30.23 inHg , 1023.7 hPa
Clouds: Overcast
Visibility: 8 miles , 13 km
Cloud details: Few Clouds 800 ft
Mostly cloudy 3400 ft
Overcast 5000 ft
2020/03/28 16:56 KSFO 281656Z 14004KT 8SM FEW008 BKN034 OVC050 12/09 A3023 RMK AO2 SLP235 T01170089
KE16 - San Martin, California, USA
Distance from station: ESE 27mi, 43km
Updated: Thu, 14-Nov-2019 1:35am PST
NOT Current
Overcast
Overcast
 Wind from SE
Wind: SE 7 mph , 11 km/h
Temperature: 54°F , 12°C
Dew Point: 50°F , 10°C
Humidity: 88%
Barometer: 30.05 inHg , 1017.6 hPa
Clouds: Overcast
Visibility: 10 miles , 16 km
Cloud details: Overcast 1400 ft
2019/11/14 09:35 KE16 140935Z AUTO 13006KT 10SM OVC014 12/10 A3005 RMK AO2
 
KWVI - Watsonville, California, USA
Distance from station: SSE 27mi, 44km
Updated: Sat, 28-Mar-2020 9:53am PDT
Light rain, Overcast
Light rain, Overcast
 Wind from calm
Wind: Calm
Temperature: 52°F , 11°C
Dew Point: 46°F , 8°C
Humidity: 82%
Barometer: 30.25 inHg , 1024.4 hPa
Summary: Light rain
Clouds: Overcast
Visibility: 9 miles , 14 km
Cloud details: Overcast 5000 ft
2020/03/28 16:53 KWVI 281653Z AUTO 00000KT 9SM -RA OVC050 11/08 A3025 RMK AO2 RAB31 SLP243 P0000 T01060083
KHAF - Half Moon Bay, California, USA
Distance from station: WNW 31mi, 50km
Updated: Sat, 28-Mar-2020 10:15am PDT
Mostly cloudy
Mostly cloudy
 Wind from SSE
Wind: SSE 6 mph , 9 km/h
Temperature: 54°F , 12°C
Dew Point: 50°F , 10°C
Humidity: 88%
Barometer: 30.24 inHg , 1024 hPa
Clouds: Mostly cloudy
Visibility: 8 miles , 13 km
Cloud details: Few Clouds 4600 ft
Mostly cloudy 6000 ft
2020/03/28 17:15 KHAF 281715Z AUTO 16005KT 8SM FEW046 BKN060 12/10 A3024 RMK AO2
 
KHWD - Hayward, California, USA
Distance from station: N 28mi, 44km
Updated: Sat, 28-Mar-2020 9:54am PDT
Light rain, Mist, Overcast
Light rain, Mist, Overcast
 Wind from SE
Wind: SE 8 mph , 13 km/h
Temperature: 52°F , 11°C
Dew Point: 48°F , 9°C
Humidity: 88%
Barometer: 30.23 inHg , 1023.7 hPa
Summary: Light rain, Mist
Clouds: Overcast
Visibility: 6 miles , 10 km
Cloud details: Mostly cloudy 4600 ft
Overcast 7500 ft
2020/03/28 16:54 KHWD 281654Z 14007KT 6SM -RA BR BKN046 OVC075 11/09 A3023 RMK AO2 SLP247 P0001 T01060089
KLVK - Livermore, California, USA
Distance from station: NNE 31mi, 51km
Updated: Sat, 28-Mar-2020 9:53am PDT
Light rain, Mist, Overcast
Light rain, Mist, Overcast
 Wind from WSW
Wind: WSW 5 mph , 7 km/h
Temperature: 50°F , 10°C
Wind Chill: 48°F , 9°C
Dew Point: 46°F , 8°C
Humidity: 88%
Barometer: 30.23 inHg , 1023.7 hPa
Summary: Light rain, Mist
Clouds: Overcast
Visibility: 5 miles , 8 km
Cloud details: Few Clouds 3400 ft
Overcast 4300 ft
2020/03/28 16:53 KLVK 281653Z 24004KT 5SM -RA BR FEW034 OVC043 10/08 A3023 RMK AO2 SLP235 P0001 T01000078